Terminal Aerodrome Forecast
Issued by NWS North Platte, NE

Home | Current Version | Previous Version | Text Only | Print | Product List | Glossary On
Versions: 1 2 3 4 5 6 7 8 9 10 11 12 13 14 15 16 17 18 19 20 21 22 23
000
FTUS43 KLBF 291410 AAA
TAFLBF
TAF AMD
KLBF 291410Z 2914/3012 02013G20KT P6SM VCSH FEW015 OVC060
      TEMPO 2914/2917 02014KT P6SM OVC010
     FM291700 02014G23KT P6SM VCSH OVC010
     FM291900 03014G21KT P6SM OVC035
     FM300300 02009KT P6SM BKN035
     FM300500 01007KT P6SM BKN060
     FM300800 36007KT P6SM SCT060=

USA.gov is the U.S. government's official web portal to all federal, state and local government web resources and services.